Time;durP1;ratioP1;P1;durP2;ratioP2;P2;SDS_P1;SDS_P2;PMS_P1;PMS_P2;Temp;Humidity;BMP_temperature;BMP_pressure;BME280_temperature;BME280_humidity;BME280_pressure;Samples;Min_cycle;Max_cycle;Signal;HPM_P1;HPM_P2
2023/04/19 00:02:19;;;;;;;2.78;2.05;;;;;;;8.95;71.63;102855.44;4996079;28;96747;-32
2023/04/19 00:04:46;;;;;;;3.25;1.95;;;;;;;8.90;72.27;102847.41;4995693;28;97886;-31
2023/04/19 00:07:12;;;;;;;4.15;2.50;;;;;;;8.90;71.82;102842.00;4994509;28;101285;-33
2023/04/19 00:09:37;;;;;;;3.03;2.08;;;;;;;8.87;72.32;102842.09;4993732;28;96544;-32
2023/04/19 00:12:03;;;;;;;4.22;1.92;;;;;;;8.83;72.53;102837.66;4995944;28;96768;-32
2023/04/19 00:14:28;;;;;;;3.40;2.17;;;;;;;8.80;72.31;102835.03;4995004;28;98360;-31
2023/04/19 00:16:53;;;;;;;5.03;2.53;;;;;;;8.81;73.35;102836.81;4995370;28;98961;-32
2023/04/19 00:19:20;;;;;;;3.53;2.50;;;;;;;8.77;72.33;102830.59;4995758;28;96538;-31
2023/04/19 00:21:46;;;;;;;4.63;2.33;;;;;;;8.76;72.67;102833.31;4995385;28;97875;-32
2023/04/19 00:24:11;;;;;;;3.15;2.08;;;;;;;8.74;72.94;102836.06;4995141;28;99222;-32
2023/04/19 00:26:37;;;;;;;3.05;2.05;;;;;;;8.69;72.72;102828.03;4995113;28;98757;-32
2023/04/19 00:29:02;;;;;;;3.45;2.65;;;;;;;8.67;72.52;102829.88;4994033;28;97896;-32
2023/04/19 00:31:27;;;;;;;4.47;2.40;;;;;;;8.63;72.72;102827.31;4994907;28;96812;-32
2023/04/19 00:33:53;;;;;;;5.95;2.47;;;;;;;8.62;72.46;102834.50;4995188;28;97494;-32
2023/04/19 00:36:18;;;;;;;3.97;2.35;;;;;;;8.61;72.97;102834.56;4995318;28;97353;-32
2023/04/19 00:38:43;;;;;;;2.58;1.63;;;;;;;8.58;73.09;102826.50;4994816;28;96586;-32
2023/04/19 00:41:09;;;;;;;4.30;2.25;;;;;;;8.58;73.65;102824.72;4995532;28;96881;-31
2023/04/19 00:43:34;;;;;;;4.82;2.78;;;;;;;8.56;72.93;102831.94;4994889;28;99261;-31
2023/04/19 00:46:00;;;;;;;3.78;2.45;;;;;;;8.48;74.09;102836.59;4995013;28;97842;-32
2023/04/19 00:48:25;;;;;;;2.45;1.80;;;;;;;8.47;74.31;102829.44;4994823;28;96653;-32
2023/04/19 00:50:51;;;;;;;3.80;2.13;;;;;;;8.47;74.78;102826.75;4995032;28;96820;-32
2023/04/19 00:53:16;;;;;;;4.45;2.15;;;;;;;8.46;73.66;102823.16;4994751;28;97389;-32
2023/04/19 00:55:41;;;;;;;2.50;1.83;;;;;;;8.50;74.80;102822.16;4995351;28;97772;-32
2023/04/19 00:58:08;;;;;;;3.65;2.03;;;;;;;8.50;74.10;102811.34;4995569;28;96469;-31
2023/04/19 01:00:34;;;;;;;4.30;2.35;;;;;;;8.56;74.53;102822.97;4993779;28;96685;-32
2023/04/19 01:02:59;;;;;;;4.13;2.58;;;;;;;8.56;74.07;102810.34;4992847;28;100911;-32
2023/04/19 01:05:25;;;;;;;4.28;2.53;;;;;;;8.59;74.62;102809.38;4994497;28;99127;-32
2023/04/19 01:07:51;;;;;;;3.55;1.92;;;;;;;8.65;73.82;102811.94;4993560;28;96728;-32
2023/04/19 01:10:16;;;;;;;3.95;2.40;;;;;;;8.72;74.33;102816.28;4994897;28;96795;-32
2023/04/19 01:12:42;;;;;;;3.33;2.17;;;;;;;8.75;74.30;102815.31;4994797;28;97395;-32
2023/04/19 01:15:08;;;;;;;4.18;2.28;;;;;;;8.77;74.22;102817.09;4994735;28;96470;-32
2023/04/19 01:17:33;;;;;;;4.53;2.60;;;;;;;8.82;74.07;102811.56;4994756;28;96914;-32
2023/04/19 01:20:06;;;;;;;5.35;3.25;;;;;;;8.86;73.93;102808.75;4995056;28;96817;-31
2023/04/19 01:22:31;;;;;;;4.47;2.00;;;;;;;8.89;74.43;102807.78;4994281;28;99577;-32
2023/04/19 01:24:57;;;;;;;5.57;3.10;;;;;;;8.91;74.50;102801.44;4994626;28;97784;-32
2023/04/19 01:27:23;;;;;;;4.57;2.63;;;;;;;8.95;75.01;102810.38;4992846;28;96685;-32
2023/04/19 01:29:48;;;;;;;2.88;1.92;;;;;;;8.99;75.14;102797.69;4994401;28;96823;-32
2023/04/19 01:32:14;;;;;;;7.00;2.95;;;;;;;9.05;74.34;102800.22;4994114;28;97918;-32
2023/04/19 01:34:39;;;;;;;5.28;2.70;;;;;;;9.10;74.99;102801.88;4994513;28;97432;-32
2023/04/19 01:37:04;;;;;;;4.15;2.63;;;;;;;9.17;75.38;102804.44;4994639;28;96533;-32
2023/04/19 01:39:30;;;;;;;3.67;2.08;;;;;;;9.22;75.32;102799.81;4994382;28;96868;-32
2023/04/19 01:41:55;;;;;;;3.97;2.20;;;;;;;9.28;75.57;102796.97;4994434;28;98060;-31
2023/04/19 01:44:21;;;;;;;4.93;2.72;;;;;;;9.33;74.96;102790.50;4994670;28;97781;-32
2023/04/19 01:46:47;;;;;;;6.95;2.67;;;;;;;9.39;74.93;102794.91;4994294;28;96572;-32
2023/04/19 01:49:12;;;;;;;4.22;2.65;;;;;;;9.44;75.27;102797.47;4994472;28;96759;-32
2023/04/19 01:51:38;;;;;;;5.32;2.78;;;;;;;9.47;74.24;102806.41;4993644;28;97634;-32
2023/04/19 01:54:03;;;;;;;4.30;2.70;;;;;;;9.49;75.98;102801.84;4994303;28;97255;-31
2023/04/19 01:56:29;;;;;;;5.20;2.42;;;;;;;9.54;75.00;102799.03;4992914;28;96657;-32
2023/04/19 01:58:55;;;;;;;4.97;3.03;;;;;;;9.53;74.45;102792.72;4994524;28;96833;-31
2023/04/19 02:01:20;;;;;;;4.60;2.50;;;;;;;9.57;75.16;102801.63;4992551;28;101326;-32
2023/04/19 02:03:46;;;;;;;4.50;2.90;;;;;;;9.55;74.18;102788.13;4993999;28;97927;-32
2023/04/19 02:06:12;;;;;;;4.78;2.88;;;;;;;9.57;74.50;102798.94;4994331;28;96639;-32
2023/04/19 02:08:38;;;;;;;4.97;2.50;;;;;;;9.55;75.11;102801.66;4993236;28;96765;-32
2023/04/19 02:11:08;;;;;;;5.15;2.88;;;;;;;9.53;75.25;102795.44;4992463;28;100726;-31
2023/04/19 02:13:34;;;;;;;4.40;2.42;;;;;;;9.53;75.74;102789.09;4992343;28;101219;-32
2023/04/19 02:16:01;;;;;;;5.68;2.72;;;;;;;9.48;75.20;102783.81;4993546;28;96472;-31
2023/04/19 02:18:28;;;;;;;3.70;2.22;;;;;;;9.50;74.77;102789.19;4993844;28;96792;-32
2023/04/19 02:20:54;;;;;;;5.00;2.65;;;;;;;9.45;75.63;102794.72;4992413;28;101261;-32
2023/04/19 02:23:19;;;;;;;6.38;3.17;;;;;;;9.40;75.51;102788.53;4992426;28;99551;-32
2023/04/19 02:25:45;;;;;;;5.47;2.88;;;;;;;9.39;75.43;102796.69;4994212;28;96423;-32
2023/04/19 02:28:11;;;;;;;4.15;2.70;;;;;;;9.33;75.83;102790.50;4994249;28;96750;-31
2023/04/19 02:30:36;;;;;;;3.97;2.30;;;;;;;9.31;76.06;102788.78;4992664;28;99409;-32
2023/04/19 02:33:02;;;;;;;3.95;2.47;;;;;;;9.27;75.77;102800.59;4994986;28;97924;-32
2023/04/19 02:35:27;;;;;;;4.75;2.78;;;;;;;9.26;74.90;102794.28;4997451;28;96560;-32
2023/04/19 02:37:52;;;;;;;7.60;2.72;;;;;;;9.17;75.84;102786.41;4997513;28;96823;-32
2023/04/19 02:40:18;;;;;;;4.35;2.80;;;;;;;9.14;75.85;102790.06;4996127;28;103280;-32
2023/04/19 02:42:43;;;;;;;4.70;3.05;;;;;;;9.08;76.21;102790.25;4996947;28;97781;-32
2023/04/19 02:45:09;;;;;;;4.07;2.53;;;;;;;9.04;76.36;102785.81;4995754;28;96589;-31
2023/04/19 02:47:34;;;;;;;4.80;2.83;;;;;;;9.06;76.42;102788.50;4996812;28;96807;-32
2023/04/19 02:50:00;;;;;;;6.55;3.05;;;;;;;9.03;76.24;102794.84;4996734;28;97983;-32
2023/04/19 02:52:26;;;;;;;4.43;2.33;;;;;;;9.00;76.42;102789.50;4995333;28;100831;-32
2023/04/19 02:54:52;;;;;;;4.57;2.55;;;;;;;9.03;76.58;102799.38;4996826;28;96523;-32
2023/04/19 02:57:17;;;;;;;6.93;3.20;;;;;;;9.02;76.03;102798.47;4997370;28;96724;-32
2023/04/19 02:59:42;;;;;;;3.80;2.60;;;;;;;8.98;76.10;102791.38;4996619;28;97541;-32
2023/04/19 03:02:08;;;;;;;3.80;2.47;;;;;;;9.00;76.53;102794.03;4996738;28;97194;-31
2023/04/19 03:04:33;;;;;;;8.20;2.58;;;;;;;9.01;76.83;102798.50;4996364;28;96727;-32
2023/04/19 03:06:59;;;;;;;5.50;2.95;;;;;;;9.03;77.17;102802.06;4995391;28;97108;-31
2023/04/19 03:09:24;;;;;;;4.75;2.55;;;;;;;9.03;77.25;102807.47;4996411;28;99530;-31
2023/04/19 03:11:50;;;;;;;3.95;2.55;;;;;;;9.01;76.99;102799.41;4996480;28;97726;-31
2023/04/19 03:14:15;;;;;;;4.28;2.67;;;;;;;9.04;76.43;102795.75;4996737;28;96605;-31
2023/04/19 03:16:40;;;;;;;4.72;2.55;;;;;;;9.00;77.14;102788.63;4996841;28;96737;-31
2023/04/19 03:19:06;;;;;;;6.70;3.45;;;;;;;9.01;76.93;102801.22;4996401;28;97853;-32
2023/04/19 03:21:31;;;;;;;4.60;2.58;;;;;;;8.97;77.64;102788.72;4996922;28;97690;-32
2023/04/19 03:23:56;;;;;;;6.85;3.15;;;;;;;8.98;77.24;102795.88;4995550;28;96872;-32
2023/04/19 03:26:22;;;;;;;3.10;2.22;;;;;;;8.98;77.57;102796.78;4996678;28;96786;-31
2023/04/19 03:28:47;;;;;;;5.20;2.97;;;;;;;9.00;77.02;102803.03;4995881;28;97936;-31
2023/04/19 03:31:13;;;;;;;4.97;2.97;;;;;;;8.98;77.35;102790.47;4995304;28;99317;-32
2023/04/19 03:33:39;;;;;;;5.03;3.03;;;;;;;8.97;78.08;102794.13;4996215;28;96782;-32
2023/04/19 03:36:05;;;;;;;6.20;2.58;;;;;;;9.00;77.41;102785.94;4996883;28;96642;-32
2023/04/19 03:38:31;;;;;;;4.95;2.53;;;;;;;9.01;78.01;102791.31;4994607;28;101056;-31
2023/04/19 03:40:56;;;;;;;4.30;2.67;;;;;;;9.02;77.39;102789.50;4996220;28;97783;-32
2023/04/19 03:43:23;;;;;;;4.95;2.83;;;;;;;8.99;78.61;102790.47;4996423;28;96689;-31
2023/04/19 03:45:48;;;;;;;5.78;2.90;;;;;;;8.95;77.80;102774.34;4994064;28;96798;-31
2023/04/19 03:48:14;;;;;;;4.95;2.53;;;;;;;9.00;77.14;102780.53;4995600;28;97416;-31
2023/04/19 03:50:39;;;;;;;3.55;2.15;;;;;;;9.01;77.32;102782.28;4995949;28;97877;-32
2023/04/19 03:53:04;;;;;;;3.95;2.42;;;;;;;9.02;78.01;102787.66;4995669;28;96615;-32
2023/04/19 03:55:30;;;;;;;4.13;2.53;;;;;;;9.00;78.46;102789.50;4996186;28;96762;-31
2023/04/19 03:57:55;;;;;;;2.67;1.92;;;;;;;9.00;78.42;102783.22;4995885;28;97888;-31
2023/04/19 04:00:21;;;;;;;5.63;2.80;;;;;;;8.97;77.98;102780.59;4995957;28;97826;-32
2023/04/19 04:02:47;;;;;;;4.85;2.33;;;;;;;8.95;77.80;102777.94;4995756;28;96609;-32
2023/04/19 04:05:12;;;;;;;4.30;2.58;;;;;;;8.99;78.08;102789.56;4996155;28;96789;-32
2023/04/19 04:07:37;;;;;;;5.53;2.97;;;;;;;9.01;78.29;102794.00;4995437;28;99540;-31
2023/04/19 04:10:03;;;;;;;4.18;2.78;;;;;;;8.99;78.36;102781.47;4995805;28;98764;-31
2023/04/19 04:12:29;;;;;;;4.50;3.00;;;;;;;8.98;77.81;102776.97;4994300;28;96586;-31
2023/04/19 04:14:54;;;;;;;5.40;2.67;;;;;;;9.01;77.70;102785.00;4995958;28;96753;-31
2023/04/19 04:17:20;;;;;;;5.25;3.15;;;;;;;9.00;78.04;102783.22;4995010;28;97913;-32
2023/04/19 04:19:45;;;;;;;5.30;3.05;;;;;;;9.02;78.16;102787.66;4995498;28;97874;-31
2023/04/19 04:22:10;;;;;;;3.40;2.33;;;;;;;9.04;77.75;102796.63;4995729;28;96514;-32
2023/04/19 04:24:43;;;;;;;5.55;2.33;;;;;;;9.03;78.41;102785.84;4995900;28;96680;-32
2023/04/19 04:27:11;;;;;;;5.07;2.38;;;;;;;9.00;78.86;102791.34;4995255;28;99243;-32
2023/04/19 04:29:37;;;;;;;6.78;2.78;;;;;;;9.01;78.25;102794.00;4993567;28;100849;-31
2023/04/19 04:32:04;;;;;;;4.00;2.33;;;;;;;9.02;77.74;102787.66;4993283;28;96752;-31
2023/04/19 04:34:30;;;;;;;4.88;2.40;;;;;;;9.02;77.86;102803.88;4995834;28;96897;-31
2023/04/19 04:36:55;;;;;;;4.03;2.35;;;;;;;9.01;77.91;102794.00;4995190;28;99498;-31
2023/04/19 04:39:21;;;;;;;3.42;2.03;;;;;;;9.03;77.72;102804.78;4995083;28;99204;-32
2023/04/19 04:41:50;;;;;;;3.17;1.85;;;;;;;9.01;78.53;102794.00;4977033;28;96633;-32
2023/04/19 04:44:16;;;;;;;4.88;2.70;;;;;;;9.03;78.11;102799.38;4995406;28;96647;-32
2023/04/19 04:46:41;;;;;;;3.88;2.78;;;;;;;9.03;77.65;102800.25;4994860;28;97935;-32
2023/04/19 04:49:06;;;;;;;4.45;2.20;;;;;;;9.01;78.17;102803.91;4994839;28;97792;-32
2023/04/19 04:51:33;;;;;;;3.90;2.33;;;;;;;9.04;77.79;102802.03;4995676;28;96577;-31
2023/04/19 04:53:58;;;;;;;3.17;2.13;;;;;;;9.05;78.57;102800.22;4993783;28;96824;-31
2023/04/19 04:56:25;;;;;;;5.50;3.25;;;;;;;9.04;78.04;102802.03;4994465;28;97950;-31
2023/04/19 04:58:51;;;;;;;6.45;3.15;;;;;;;9.04;77.54;102803.88;4993593;28;100823;-32
2023/04/19 05:01:18;;;;;;;4.38;2.38;;;;;;;9.09;77.66;102813.63;4995151;28;96620;-31
2023/04/19 05:03:44;;;;;;;3.53;2.60;;;;;;;9.10;78.13;102812.69;4995090;28;96783;-32
2023/04/19 05:06:09;;;;;;;4.35;2.42;;;;;;;9.13;77.83;102811.75;4994185;28;99198;-32
2023/04/19 05:08:34;;;;;;;4.80;2.40;;;;;;;9.13;77.83;102809.94;4994427;28;99071;-31
2023/04/19 05:11:00;;;;;;;4.28;2.67;;;;;;;9.15;77.57;102809.88;4995127;28;96447;-31
2023/04/19 05:13:25;;;;;;;2.30;1.88;;;;;;;9.13;78.13;102809.06;4994852;28;96724;-33
2023/04/19 05:15:50;;;;;;;4.07;2.65;;;;;;;9.14;77.58;102802.72;4994451;28;97856;-32
2023/04/19 05:18:16;;;;;;;3.70;2.60;;;;;;;9.15;78.06;102809.88;4994398;28;99059;-32
2023/04/19 05:20:42;;;;;;;4.38;2.47;;;;;;;9.17;77.96;102801.75;4995038;28;96456;-32
2023/04/19 05:23:10;;;;;;;3.28;2.33;;;;;;;9.18;77.66;102800.84;4995187;28;96844;-31
2023/04/19 05:25:35;;;;;;;5.18;2.65;;;;;;;9.17;77.33;102796.34;4993026;28;101232;-31
2023/04/19 05:28:02;;;;;;;3.50;2.10;;;;;;;9.23;77.61;102816.00;4994216;28;98865;-32
2023/04/19 05:30:27;;;;;;;6.05;2.08;;;;;;;9.19;78.01;102810.72;4991945;28;96629;-32
2023/04/19 05:32:53;;;;;;;3.65;1.98;;;;;;;9.19;77.39;102813.41;4993432;28;96765;-31
2023/04/19 05:35:19;;;;;;;4.72;2.65;;;;;;;9.19;77.14;102816.13;4994551;28;97794;-31
2023/04/19 05:37:44;;;;;;;7.30;2.15;;;;;;;9.14;77.23;102816.22;4994157;28;99080;-31
2023/04/19 05:40:10;;;;;;;6.80;2.63;;;;;;;9.16;77.27;102817.09;4994737;28;96551;-31
2023/04/19 05:42:35;;;;;;;3.85;2.38;;;;;;;9.13;77.34;102817.16;4993137;28;96888;-32
2023/04/19 05:45:01;;;;;;;3.92;2.20;;;;;;;9.16;77.14;102817.09;4994463;28;98003;-32
2023/04/19 05:47:26;;;;;;;6.38;2.58;;;;;;;9.18;77.02;102820.66;4994201;28;100298;-32
2023/04/19 05:49:51;;;;;;;4.07;2.50;;;;;;;9.19;76.88;102810.72;4994525;28;96621;-32
2023/04/19 05:52:17;;;;;;;5.85;2.50;;;;;;;9.22;76.76;102819.63;4994440;28;96812;-32
2023/04/19 05:54:43;;;;;;;5.30;2.50;;;;;;;9.24;76.45;102819.59;4992175;28;100615;-31
2023/04/19 05:57:08;;;;;;;5.50;2.75;;;;;;;9.25;76.49;102826.81;4993880;28;99545;-31
2023/04/19 05:59:34;;;;;;;2.95;1.92;;;;;;;9.27;76.27;102825.84;4994444;28;96739;-32
2023/04/19 06:02:00;;;;;;;4.75;2.40;;;;;;;9.31;76.20;102822.09;4994143;28;97011;-32
2023/04/19 06:04:25;;;;;;;7.10;2.72;;;;;;;9.36;75.80;102833.69;4993807;28;99781;-31
2023/04/19 06:06:51;;;;;;;3.97;2.03;;;;;;;9.43;75.77;102830.84;4992595;28;100878;-31
2023/04/19 06:09:17;;;;;;;4.55;2.20;;;;;;;9.50;75.52;102832.47;4997160;28;96486;-31
2023/04/19 06:11:43;;;;;;;5.45;2.50;;;;;;;9.58;75.38;102830.44;4996712;28;96815;-31
2023/04/19 06:14:10;;;;;;;4.53;2.25;;;;;;;9.65;75.05;102832.06;4995510;28;101197;-32
2023/04/19 06:16:35;;;;;;;4.22;2.20;;;;;;;9.69;74.43;102831.06;4995821;28;100771;-32
2023/04/19 06:19:00;;;;;;;3.53;2.35;;;;;;;9.79;74.45;102829.91;4997238;28;96514;-32
2023/04/19 06:21:29;;;;;;;3.33;1.85;;;;;;;9.86;73.45;102835.16;4997649;28;96857;-32
2023/04/19 06:23:55;;;;;;;2.83;1.90;;;;;;;9.90;72.67;102843.16;4995701;28;101228;-31
2023/04/19 06:26:20;;;;;;;4.35;2.47;;;;;;;9.95;72.67;102840.34;4997240;28;97811;-32
2023/04/19 06:28:45;;;;;;;3.10;2.10;;;;;;;10.00;72.36;102832.97;4997177;28;96530;-32
2023/04/19 06:31:11;;;;;;;4.60;2.55;;;;;;;10.12;72.59;102846.16;4996699;28;96945;-31
2023/04/19 06:33:36;;;;;;;4.72;2.05;;;;;;;10.15;72.07;102837.97;4997225;28;97970;-31
2023/04/19 06:36:02;;;;;;;3.80;2.25;;;;;;;10.27;71.35;102847.56;4996094;28;100777;-32
2023/04/19 06:38:28;;;;;;;4.63;2.35;;;;;;;10.26;69.81;102847.63;4997309;28;96624;-31
2023/04/19 06:40:53;;;;;;;2.97;1.98;;;;;;;10.33;70.98;102843.84;4995908;28;96818;-32
2023/04/19 06:43:20;;;;;;;3.50;2.00;;;;;;;10.47;70.86;102832.63;4995095;28;97532;-32
2023/04/19 06:45:45;;;;;;;6.47;3.05;;;;;;;10.62;70.42;102841.16;4995434;28;100941;-31
2023/04/19 06:48:11;;;;;;;3.95;2.20;;;;;;;10.72;69.48;102843.59;4995415;28;96811;-32
2023/04/19 06:50:36;;;;;;;3.05;1.90;;;;;;;10.72;68.51;102835.47;4997211;28;96794;-32
2023/04/19 06:53:01;;;;;;;5.97;2.45;;;;;;;10.86;67.51;102830.50;4996882;28;97973;-31
2023/04/19 06:55:27;;;;;;;6.22;2.65;;;;;;;11.00;67.82;102833.69;4996455;28;99063;-31
2023/04/19 06:57:52;;;;;;;4.45;2.13;;;;;;;11.05;66.04;102845.25;4995431;28;96619;-32
2023/04/19 07:00:18;;;;;;;3.28;2.05;;;;;;;11.13;65.71;102850.47;4997503;28;96755;-32
2023/04/19 07:02:43;;;;;;;4.47;2.50;;;;;;;11.25;65.50;102839.22;4996698;28;97927;-31
2023/04/19 07:05:08;;;;;;;4.25;2.00;;;;;;;11.35;64.53;102837.09;4996601;28;99350;-31
2023/04/19 07:07:36;;;;;;;5.03;2.25;;;;;;;11.47;65.05;102836.69;4996187;28;96814;-31
2023/04/19 07:10:02;;;;;;;2.60;1.70;;;;;;;11.53;64.26;102830.16;4996920;28;96774;-31
2023/04/19 07:12:27;;;;;;;2.97;1.73;;;;;;;11.50;61.03;102834.81;4996363;28;97347;-32
2023/04/19 07:14:55;;;;;;;7.65;2.92;;;;;;;11.54;62.66;102833.78;4996591;28;97787;-32
2023/04/19 07:17:24;;;;;;;3.20;1.95;;;;;;;11.71;61.30;102839.50;4996565;28;96753;-32
2023/04/19 07:19:49;;;;;;;4.68;2.08;;;;;;;11.76;61.23;102834.81;4995120;28;96841;-32
2023/04/19 07:22:14;;;;;;;4.18;1.90;;;;;;;11.99;61.73;102827.69;4996520;28;97825;-31
2023/04/19 07:24:40;;;;;;;3.92;2.33;;;;;;;12.28;61.34;102822.09;4996676;28;97703;-32
2023/04/19 07:27:06;;;;;;;2.70;1.67;;;;;;;12.51;60.53;102814.91;4996241;28;96663;-31
2023/04/19 07:29:35;;;;;;;5.28;2.30;;;;;;;12.61;58.91;102813.63;4994975;28;96963;-31
2023/04/19 07:32:01;;;;;;;4.50;1.77;;;;;;;12.67;58.84;102824.25;4993869;28;101212;-31
2023/04/19 07:34:27;;;;;;;4.55;2.42;;;;;;;12.65;58.99;102817.97;4994620;28;100831;-32
2023/04/19 07:36:52;;;;;;;3.30;2.13;;;;;;;12.71;58.93;102812.31;4996498;28;96601;-32
2023/04/19 07:39:17;;;;;;;4.05;2.17;;;;;;;12.83;58.06;102826.41;4996146;28;96831;-32
2023/04/19 07:41:44;;;;;;;3.45;2.03;;;;;;;12.92;56.81;102812.44;4996077;28;98033;-32
2023/04/19 07:44:10;;;;;;;4.25;2.45;;;;;;;12.94;56.51;102816.88;4994696;28;100906;-32
2023/04/19 07:46:36;;;;;;;4.75;2.55;;;;;;;12.96;56.50;102814.94;4994958;28;96565;-32
2023/04/19 07:49:02;;;;;;;4.88;2.15;;;;;;;13.20;54.17;102812.19;4996272;28;96840;-31
2023/04/19 07:51:27;;;;;;;7.68;1.85;;;;;;;13.31;53.58;102820.81;4995637;28;99453;-32
2023/04/19 07:53:53;;;;;;;3.95;2.13;;;;;;;13.42;55.56;102812.22;4980164;28;97939;-32
2023/04/19 07:56:19;;;;;;;3.22;2.05;;;;;;;13.57;54.80;102814.28;4985881;28;96624;-31
2023/04/19 07:58:44;;;;;;;3.25;2.00;;;;;;;13.72;53.24;102820.03;4994612;28;96878;-31
2023/04/19 08:01:10;;;;;;;3.35;1.95;;;;;;;13.84;54.28;102821.34;4995753;28;98093;-32
2023/04/19 08:03:36;;;;;;;4.13;1.95;;;;;;;13.90;52.25;102819.25;4995478;28;98897;-32
2023/04/19 08:06:07;;;;;;;3.67;2.00;;;;;;;14.12;53.17;102815.56;4994638;28;96556;-31
2023/04/19 08:08:33;;;;;;;2.53;1.67;;;;;;;14.14;53.06;102809.06;4996064;28;96768;-31
2023/04/19 08:11:00;;;;;;;3.05;1.70;;;;;;;14.27;51.08;102811.25;4994201;28;101028;-32
2023/04/19 08:13:26;;;;;;;2.42;1.58;;;;;;;14.18;50.64;102807.09;4995781;28;97878;-32
2023/04/19 08:15:51;;;;;;;2.38;1.45;;;;;;;14.19;49.30;102808.88;4995885;28;96527;-32
2023/04/19 08:18:16;;;;;;;5.28;1.88;;;;;;;14.26;48.58;102804.91;4995723;28;96850;-32
2023/04/19 08:20:42;;;;;;;2.70;1.73;;;;;;;14.35;50.69;102807.22;4994949;28;97834;-31
2023/04/19 08:23:07;;;;;;;4.03;2.00;;;;;;;14.38;49.20;102806.19;4995263;28;97841;-32
2023/04/19 08:25:33;;;;;;;2.65;1.70;;;;;;;14.47;49.43;102808.50;4995691;28;96636;-32
2023/04/19 08:27:59;;;;;;;4.18;1.90;;;;;;;14.58;50.64;102808.00;4995767;28;96809;-32
2023/04/19 08:30:24;;;;;;;2.95;1.70;;;;;;;14.78;48.73;102804.34;4993836;28;98023;-32
2023/04/19 08:32:50;;;;;;;3.78;2.00;;;;;;;14.91;49.61;102793.72;4993890;28;100752;-32
2023/04/19 08:35:15;;;;;;;2.47;1.80;;;;;;;15.10;45.61;102791.84;4995728;28;96844;-32
2023/04/19 08:37:41;;;;;;;5.00;1.50;;;;;;;15.22;48.70;102801.28;4995531;28;96841;-32
2023/04/19 08:40:07;;;;;;;2.53;1.60;;;;;;;15.17;45.49;102800.63;4995096;28;98046;-32
2023/04/19 08:42:32;;;;;;;4.97;2.47;;;;;;;15.20;47.35;102804.06;4993589;28;100776;-31
2023/04/19 08:45:04;;;;;;;2.80;1.90;;;;;;;15.07;46.98;102792.91;4994429;28;96466;-32
2023/04/19 08:47:32;;;;;;;3.40;1.80;;;;;;;15.32;45.83;102796.25;4995101;28;96859;-32
2023/04/19 08:50:08;;;;;;;2.92;1.65;;;;;;;15.39;45.57;102794.97;4993453;28;101633;-31
2023/04/19 08:52:35;;;;;;;3.63;1.67;;;;;;;15.45;46.42;102797.41;4993417;28;102074;-32
2023/04/19 08:55:03;;;;;;;4.50;2.05;;;;;;;15.73;46.06;102791.44;4993854;28;96563;-32
2023/04/19 08:57:30;;;;;;;2.22;1.50;;;;;;;15.84;43.83;102796.31;4993791;28;96906;-32
2023/04/19 08:59:56;;;;;;;3.95;2.00;;;;;;;15.85;45.23;102806.28;4993276;28;101248;-32
2023/04/19 09:02:22;;;;;;;4.10;1.85;;;;;;;15.97;43.52;102802.94;4995000;28;99041;-31
2023/04/19 09:04:48;;;;;;;3.05;1.63;;;;;;;16.11;44.36;102800.34;4995195;28;96455;-32
2023/04/19 09:07:27;;;;;;;3.58;1.90;;;;;;;16.11;43.89;102796.69;4995215;28;96899;-32
2023/04/19 09:10:17;;;;;;;7.60;1.67;;;;;;;16.27;45.14;102799.50;4992679;28;102480;-32
2023/04/19 09:12:59;;;;;;;3.25;1.73;;;;;;;16.25;42.59;102796.84;4995106;28;96939;-32
2023/04/19 09:15:34;;;;;;;;;;;;;;;16.31;43.09;102782.84;4995335;28;96734;-32
2023/04/19 09:18:05;;;;;;;2.22;1.27;;;;;;;16.32;42.62;102789.19;4993768;28;96730;-32
2023/04/19 09:20:36;;;;;;;1.90;1.10;;;;;;;16.20;41.86;102790.72;4993163;28;100889;-31
2023/04/19 09:23:04;;;;;;;4.35;1.75;;;;;;;16.19;42.86;102797.19;4993018;28;99942;-31
2023/04/19 09:25:30;;;;;;;2.63;1.67;;;;;;;16.35;42.95;102787.19;4992982;28;96758;-33
2023/04/19 09:28:10;;;;;;;3.50;1.50;;;;;;;16.65;42.38;102785.56;4993581;28;96984;-31
2023/04/19 09:30:36;;;;;;;3.25;1.50;;;;;;;16.72;41.94;102776.03;4992485;28;99513;-32
2023/04/19 09:33:02;;;;;;;4.57;1.45;;;;;;;16.65;41.68;102785.56;4993107;28;100776;-31
2023/04/19 09:35:40;;;;;;;3.17;1.48;;;;;;;16.92;41.69;102788.59;4994256;28;96683;-32
2023/04/19 09:38:06;;;;;;;3.42;1.50;;;;;;;16.76;41.78;102778.50;4994712;28;96780;-32
2023/04/19 09:40:31;;;;;;;2.70;1.58;;;;;;;16.99;41.00;102768.09;4993033;28;98436;-31
2023/04/19 09:42:57;;;;;;;1.92;1.33;;;;;;;16.94;40.74;102771.09;4995211;28;99310;-32
2023/04/19 09:45:22;;;;;;;4.00;1.38;;;;;;;17.08;40.05;102764.84;4996824;28;96583;-31
2023/04/19 09:48:06;;;;;;;3.03;1.70;;;;;;;17.18;38.58;102773.41;4996584;28;96813;-32
2023/04/19 09:50:31;;;;;;;2.60;1.60;;;;;;;17.20;38.53;102775.06;4997612;28;99460;-32
2023/04/19 09:52:58;;;;;;;2.38;1.63;;;;;;;17.25;39.31;102765.72;4998037;28;97562;-32
2023/04/19 09:55:25;;;;;;;4.40;1.60;;;;;;;17.30;39.74;102760.84;4996568;28;96494;-32
2023/04/19 09:57:52;;;;;;;1.88;1.35;;;;;;;17.29;38.19;102765.44;4996512;28;97690;-32
2023/04/19 10:00:20;;;;;;;3.00;1.05;;;;;;;17.46;37.20;102774.50;4993376;28;100778;-33
2023/04/19 10:02:53;;;;;;;2.22;1.50;;;;;;;17.50;37.46;102765.13;4994950;28;99337;-32
2023/04/19 10:05:21;;;;;;;2.90;1.52;;;;;;;17.67;36.63;102765.00;4995528;28;96991;-32
2023/04/19 10:07:48;;;;;;;1.70;1.00;;;;;;;17.51;34.56;102773.25;4995436;28;97187;-32
2023/04/19 10:10:15;;;;;;;2.13;1.08;;;;;;;17.44;35.67;102765.50;4993620;28;101196;-32
2023/04/19 10:12:43;;;;;;;3.38;1.42;;;;;;;17.78;35.70;102767.97;4994712;28;99097;-33
2023/04/19 10:15:10;;;;;;;2.33;1.23;;;;;;;17.66;33.63;102768.69;4995711;28;96602;-32
2023/04/19 10:17:36;;;;;;;2.17;1.40;;;;;;;17.63;33.43;102764.28;4996564;28;96891;-32
2023/04/19 10:20:09;;;;;;;1.85;0.82;;;;;;;17.66;33.21;102767.81;4997395;28;97223;-32
2023/04/19 10:22:38;;;;;;;1.67;1.08;;;;;;;17.71;33.36;102755.63;4997534;28;97811;-32
2023/04/19 10:25:11;;;;;;;1.35;0.82;;;;;;;17.67;33.65;102755.91;4995567;28;96583;-32
2023/04/19 10:27:45;;;;;;;2.08;1.15;;;;;;;17.66;32.93;102763.22;4996101;28;96834;-32
2023/04/19 10:30:31;;;;;;;0.98;0.68;;;;;;;17.77;32.83;102757.09;4995504;28;101075;-32
2023/04/19 10:32:58;;;;;;;2.10;1.00;;;;;;;17.46;31.29;102758.06;4996794;28;97839;-32
2023/04/19 10:35:34;;;;;;;3.80;0.88;;;;;;;17.60;32.11;102748.03;4995902;28;96608;-32
2023/04/19 10:38:09;;;;;;;1.77;1.00;;;;;;;17.68;32.83;102758.53;4995961;28;96688;-32
2023/04/19 10:40:49;;;;;;;2.83;1.00;;;;;;;17.91;31.68;102756.28;4995552;28;100851;-32
2023/04/19 10:43:18;;;;;;;1.73;0.82;;;;;;;17.75;30.34;102759.91;4997325;28;97896;-32
2023/04/19 10:45:45;;;;;;;1.10;0.68;;;;;;;17.98;32.24;102755.78;4997288;28;96714;-31
2023/04/19 10:48:26;;;;;;;2.15;1.00;;;;;;;17.99;30.67;102742.94;4995815;28;96975;-32
2023/04/19 10:50:59;;;;;;;1.17;0.77;;;;;;;18.20;32.01;102746.19;4996333;28;99438;-31
2023/04/19 10:54:00;;;;;;;1.23;0.73;;;;;;;18.14;31.98;102741.09;4994751;28;101038;-32
2023/04/19 10:56:31;;;;;;;2.55;0.90;;;;;;;18.04;31.64;102752.66;4995795;28;96731;-32
2023/04/19 10:59:00;;;;;;;1.08;0.60;;;;;;;18.01;30.93;102747.34;4997285;28;96746;-32
2023/04/19 11:01:42;;;;;;;1.13;0.68;;;;;;;18.08;31.60;102747.84;4996387;28;99941;-32
2023/04/19 11:04:08;;;;;;;;;;;;;;;18.25;32.12;102738.56;4997182;28;98388;-32
2023/04/19 11:06:34;;;;;;;4.07;0.68;;;;;;;18.33;31.78;102730.72;4996992;28;96555;-32
2023/04/19 11:09:02;;;;;;;1.80;0.82;;;;;;;18.42;31.26;102732.88;4995947;28;96853;-32
2023/04/19 11:11:27;;;;;;;1.42;0.65;;;;;;;18.38;31.62;102734.06;4995138;28;100843;-32
2023/04/19 11:13:58;;;;;;;1.45;0.68;;;;;;;18.51;31.63;102738.75;4996219;28;98793;-32
2023/04/19 11:16:24;;;;;;;1.83;1.00;;;;;;;18.29;31.03;102737.38;4994952;28;96616;-32
2023/04/19 11:18:50;;;;;;;2.10;0.63;;;;;;;18.21;30.53;102743.38;4996793;28;96742;-32
2023/04/19 11:21:19;;;;;;;1.75;0.80;;;;;;;18.19;31.34;102730.75;4996399;28;98200;-32
2023/04/19 11:23:46;;;;;;;1.27;0.70;;;;;;;18.10;30.46;102726.72;4994898;28;101004;-32
2023/04/19 11:26:12;;;;;;;1.98;0.77;;;;;;;17.96;31.50;102727.56;4996618;28;96716;-32
2023/04/19 11:28:38;;;;;;;2.15;1.00;;;;;;;17.93;29.43;102716.81;4996620;28;96850;-32